Time;durP1;ratioP1;P1;durP2;ratioP2;P2;SDS_P1;SDS_P2;PMS_P1;PMS_P2;Temp;Humidity;BMP_temperature;BMP_pressure;BME280_temperature;BME280_humidity;BME280_pressure;Samples;Min_cycle;Max_cycle;Signal;HPM_P1;HPM_P2
2022/05/24 00:00:33;;;;;;;0.90;0.90;;;19.10;73.40;19.30;99187.00;;;;4954729;28;108381;-66
2022/05/24 00:03:05;;;;;;;1.33;1.23;;;19.10;73.20;19.40;99185.00;;;;4955400;28;88460;-66
2022/05/24 00:05:34;;;;;;;1.02;0.90;;;19.20;73.00;19.50;99180.00;;;;4954216;28;108705;-65
2022/05/24 00:07:59;;;;;;;2.95;1.27;;;19.30;72.90;19.50;99184.00;;;;4955324;28;88079;-65
2022/05/24 00:10:29;;;;;;;0.93;0.85;;;19.30;72.70;19.60;99184.00;;;;4955416;28;87999;-65
2022/05/24 00:12:56;;;;;;;2.70;1.30;;;19.40;72.60;19.70;99185.00;;;;4955429;28;88060;-66
2022/05/24 00:15:27;;;;;;;1.23;1.13;;;19.40;72.30;19.70;99186.00;;;;4969635;28;97051;-66
2022/05/24 00:18:19;;;;;;;1.52;1.33;;;19.50;72.20;19.70;99181.00;;;;4955895;28;87790;-66
2022/05/24 00:20:51;;;;;;;1.67;1.08;;;19.50;72.00;19.80;99179.00;;;;4931902;28;88717;-68
2022/05/24 00:23:18;;;;;;;0.98;0.80;;;19.60;72.60;19.80;99181.00;;;;4969723;28;87866;-66
2022/05/24 00:25:48;;;;;;;3.58;1.05;;;19.60;71.50;19.90;99182.00;;;;4954664;28;88375;-67
2022/05/24 00:28:15;;;;;;;3.40;0.98;;;19.70;71.40;19.90;99185.00;;;;4955789;28;87861;-66
2022/05/24 00:30:45;;;;;;;1.20;0.70;;;19.70;71.30;19.90;99182.00;;;;4955589;28;87648;-68
2022/05/24 00:33:10;;;;;;;4.10;0.98;;;19.70;71.10;19.90;99178.00;;;;4970255;28;88466;-66
2022/05/24 00:35:37;;;;;;;1.42;1.33;;;19.70;71.00;19.90;99179.00;;;;4953891;28;117296;-66
2022/05/24 00:38:39;;;;;;;1.23;1.13;;;19.70;71.10;19.90;99186.00;;;;4955029;28;110633;-66
2022/05/24 00:41:25;;;;;;;1.73;1.00;;;19.70;71.00;19.90;99185.00;;;;4935529;28;87969;-66
2022/05/24 00:43:57;;;;;;;1.48;1.23;;;19.70;71.00;19.90;99182.00;;;;4960464;28;87835;-66
2022/05/24 00:46:47;;;;;;;1.02;0.80;;;19.70;71.00;19.90;99167.00;;;;4958959;28;88811;-66
2022/05/24 00:49:20;;;;;;;0.95;0.95;;;19.70;71.10;19.90;99179.00;;;;4915021;28;102785;-66
2022/05/24 00:51:52;;;;;;;1.42;1.30;;;19.70;71.30;19.90;99177.00;;;;4969136;28;101503;-66
2022/05/24 00:54:18;;;;;;;1.75;1.02;;;19.70;71.20;19.90;99170.00;;;;4969836;28;88506;-66
2022/05/24 00:57:00;;;;;;;0.70;0.70;;;19.70;71.10;19.90;99178.00;;;;4953808;28;105335;-67
2022/05/24 00:59:52;;;;;;;1.23;1.00;;;19.70;71.10;19.80;99174.00;;;;4969015;28;90390;-66
2022/05/24 01:02:18;;;;;;;2.25;1.55;;;19.70;71.30;19.80;99185.00;;;;4931413;28;99882;-66
2022/05/24 01:04:44;;;;;;;0.88;0.88;;;19.70;71.50;19.80;99177.00;;;;4955133;28;87419;-66
2022/05/24 01:07:10;;;;;;;1.40;0.90;;;19.70;71.70;19.80;99179.00;;;;4934510;28;88064;-67
2022/05/24 01:09:56;;;;;;;1.58;1.35;;;19.60;71.90;19.70;99172.00;;;;4935341;28;95506;-67
2022/05/24 01:12:34;;;;;;;1.25;1.05;;;19.60;72.20;19.70;99183.00;;;;4934650;28;88643;-66
2022/05/24 01:15:04;;;;;;;1.27;0.88;;;19.60;72.40;19.70;99187.00;;;;4934171;28;110571;-68
2022/05/24 01:17:30;;;;;;;2.72;1.05;;;19.50;72.30;19.70;99193.00;;;;4953717;28;98447;-67
2022/05/24 01:19:56;;;;;;;7.97;1.60;;;19.50;72.60;19.70;99188.00;;;;4935491;28;88097;-66
2022/05/24 01:23:37;;;;;;;2.00;1.20;;;19.50;72.80;19.60;99178.00;;;;4933846;28;108891;-67
2022/05/24 01:26:24;;;;;;;3.00;1.27;;;19.50;73.00;19.60;99180.00;;;;4888814;28;89839;-66
2022/05/24 01:28:59;;;;;;;1.00;0.90;;;19.40;73.50;19.60;99176.00;;;;4923593;28;87736;-66
2022/05/24 01:36:09;;;;;;;0.90;0.90;;;19.40;73.50;19.60;99182.00;;;;4935269;28;106812;-67
2022/05/24 01:36:58;;;;;;;1.40;1.17;;;19.40;74.00;19.50;99174.00;;;;4965990;28;87761;-66
2022/05/24 01:39:24;;;;;;;1.63;1.00;;;19.30;73.90;19.50;99178.00;;;;4967558;28;103208;-67
2022/05/24 01:41:53;;;;;;;1.70;0.98;;;19.30;74.10;19.50;99182.00;;;;4953427;28;104429;-67
2022/05/24 01:44:48;;;;;;;1.80;1.45;;;19.30;74.20;19.40;99187.00;;;;4954469;28;107211;-66
2022/05/24 01:47:17;;;;;;;1.13;0.73;;;19.30;74.70;19.40;99188.00;;;;4949447;28;88146;-66
2022/05/24 01:49:55;;;;;;;1.52;1.42;;;19.30;74.80;19.40;99189.00;;;;4968775;28;87763;-66
2022/05/24 01:52:53;;;;;;;1.92;1.58;;;19.20;75.20;19.40;99191.00;;;;4933766;28;105183;-67
2022/05/24 01:55:57;;;;;;;1.63;1.52;;;19.20;75.40;19.30;99205.00;;;;4954235;28;87744;-66
2022/05/24 01:58:27;;;;;;;1.38;0.77;;;19.20;75.50;19.30;99197.00;;;;4967548;28;91914;-68
2022/05/24 02:01:03;;;;;;;1.45;1.30;;;19.20;76.00;19.30;99197.00;;;;4971192;28;109033;-66
2022/05/24 02:03:29;;;;;;;0.98;0.90;;;19.20;77.50;19.30;99204.00;;;;4971930;28;88561;-67
2022/05/24 02:05:54;;;;;;;1.85;1.45;;;19.20;76.80;19.30;99200.00;;;;4956179;28;108910;-66
2022/05/24 02:08:21;;;;;;;0.80;0.80;;;19.10;76.60;19.20;99193.00;;;;4957476;28;87844;-67
2022/05/24 02:10:56;;;;;;;1.60;1.35;;;19.10;76.80;19.20;99198.00;;;;4956186;28;116992;-67
2022/05/24 02:13:29;;;;;;;2.40;1.10;;;19.10;77.20;19.20;99199.00;;;;4955432;28;103206;-67
2022/05/24 02:15:58;;;;;;;1.15;1.10;;;19.00;77.30;19.20;99203.00;;;;4957473;28;87834;-66
2022/05/24 02:18:25;;;;;;;1.33;1.23;;;19.00;77.70;19.20;99204.00;;;;4971556;28;88120;-67
2022/05/24 02:20:51;;;;;;;0.90;0.85;;;19.00;78.10;19.20;99202.00;;;;4956198;28;109109;-66
2022/05/24 02:23:20;;;;;;;3.55;1.25;;;19.00;78.20;19.20;99201.00;;;;4956584;28;109613;-67
2022/05/24 02:25:51;;;;;;;1.48;0.98;;;19.00;78.40;19.20;99198.00;;;;4957711;28;87759;-66
2022/05/24 02:28:21;;;;;;;1.30;1.20;;;19.10;78.80;19.30;99193.00;;;;4956723;28;88728;-66
2022/05/24 02:30:52;;;;;;;1.70;1.30;;;19.10;79.00;19.30;99196.00;;;;4955417;28;109848;-65
2022/05/24 02:33:20;;;;;;;1.40;1.30;;;19.10;79.10;19.30;99196.00;;;;4956508;28;88244;-66
2022/05/24 02:35:46;;;;;;;1.48;1.30;;;19.10;79.10;19.30;99203.00;;;;4956354;28;87729;-66
2022/05/24 02:38:13;;;;;;;4.18;0.98;;;19.20;79.50;19.30;99209.00;;;;4937000;28;109431;-66
2022/05/24 02:43:23;;;;;;;1.25;1.15;;;19.20;79.80;19.30;99209.00;;;;4955242;28;87728;-66
2022/05/24 02:45:49;;;;;;;1.02;0.93;;;19.10;80.00;19.30;99208.00;;;;4970655;28;87709;-65
2022/05/24 02:48:15;;;;;;;1.13;1.02;;;19.20;80.00;19.30;99210.00;;;;4969117;28;117161;-66
2022/05/24 02:50:41;;;;;;;0.95;0.80;;;19.10;80.30;19.40;99217.00;;;;4956081;28;90403;-66
2022/05/24 02:53:12;;;;;;;1.55;1.23;;;19.20;80.50;19.40;99211.00;;;;4954802;28;109907;-66
2022/05/24 02:55:38;;;;;;;1.35;1.05;;;19.20;81.00;19.40;99210.00;;;;4954957;28;109655;-66
2022/05/24 02:58:04;;;;;;;1.45;1.13;;;19.20;81.20;19.40;99223.00;;;;4937817;28;89638;-66
2022/05/24 03:00:31;;;;;;;3.70;1.08;;;19.20;81.40;19.40;99215.00;;;;4956065;28;87949;-66
2022/05/24 03:02:57;;;;;;;2.55;1.75;;;19.20;82.30;19.40;99208.00;;;;4956755;28;87853;-66
2022/05/24 03:05:24;;;;;;;2.20;1.33;;;19.20;82.50;19.40;99214.00;;;;4956574;28;88122;-66
2022/05/24 03:10:35;;;;;;;1.85;1.42;;;19.20;84.40;19.40;99216.00;;;;4934280;28;87797;-65
2022/05/24 03:16:13;;;;;;;1.17;0.90;;;19.20;85.70;19.40;99222.00;;;;4932949;28;87952;-67
2022/05/24 03:18:41;;;;;;;1.75;1.25;;;19.20;86.10;19.40;99223.00;;;;4932166;28;88354;-66
2022/05/24 03:21:06;;;;;;;1.20;1.10;;;19.20;86.20;19.40;99225.00;;;;4926896;28;88793;-66
2022/05/24 03:23:33;;;;;;;1.00;1.00;;;19.20;87.40;19.40;99229.00;;;;4955537;28;87802;-65
2022/05/24 03:26:00;;;;;;;3.05;1.35;;;19.30;87.70;19.40;99233.00;;;;4956360;28;87872;-68
2022/05/24 03:28:25;;;;;;;1.33;1.20;;;19.20;88.20;19.40;99242.00;;;;4955091;28;106938;-66
2022/05/24 03:30:51;;;;;;;0.85;0.80;;;19.30;88.60;19.40;99242.00;;;;4956324;28;88694;-66
2022/05/24 03:33:17;;;;;;;4.32;1.08;;;19.30;89.00;19.40;99248.00;;;;4955727;28;87828;-68
2022/05/24 03:35:43;;;;;;;1.25;1.15;;;19.20;90.60;19.40;99246.00;;;;4955526;28;106799;-66
2022/05/24 03:38:09;;;;;;;1.45;1.35;;;19.20;92.00;19.30;99253.00;;;;4955304;28;116791;-68
2022/05/24 03:40:35;;;;;;;1.42;1.02;;;19.20;93.30;19.00;99255.00;;;;4955120;28;93776;-67
2022/05/24 03:43:02;;;;;;;3.58;1.38;;;19.00;95.20;18.80;99258.00;;;;4956004;28;87867;-67
2022/05/24 03:45:28;;;;;;;1.42;1.17;;;18.80;97.80;18.50;99257.00;;;;4965577;28;88829;-67
2022/05/24 03:47:54;;;;;;;1.38;1.15;;;18.50;99.90;18.30;99249.00;;;;4964327;28;88278;-68
2022/05/24 03:50:22;;;;;;;3.38;1.15;;;18.40;99.90;18.20;99253.00;;;;4954545;28;115880;-67
2022/05/24 03:52:48;;;;;;;5.45;1.35;;;18.20;99.90;18.10;99262.00;;;;4955624;28;87785;-67
2022/05/24 03:55:15;;;;;;;1.30;1.17;;;18.10;99.90;18.10;99256.00;;;;4954894;28;98645;-67
2022/05/24 04:00:35;;;;;;;1.20;1.10;;;17.90;99.90;18.00;99265.00;;;;4954088;28;88000;-66
2022/05/24 04:03:02;;;;;;;2.72;1.35;;;17.90;99.90;18.00;99272.00;;;;4956310;28;87044;-67
2022/05/24 04:05:29;;;;;;;2.83;1.70;;;17.90;99.90;18.00;99265.00;;;;4954457;28;102145;-67
2022/05/24 04:07:55;;;;;;;1.15;1.05;;;17.90;99.90;18.00;99263.00;;;;4955389;28;87946;-67
2022/05/24 04:10:21;;;;;;;1.83;1.25;;;17.90;99.90;18.10;99265.00;;;;4949156;28;117809;-67
2022/05/24 04:12:47;;;;;;;1.83;1.13;;;17.90;99.90;18.10;99261.00;;;;4933600;28;87663;-67
2022/05/24 04:15:14;;;;;;;3.78;1.35;;;18.00;99.90;18.20;99257.00;;;;4954403;28;109958;-67
2022/05/24 04:17:40;;;;;;;1.05;0.80;;;18.00;99.90;18.30;99268.00;;;;4955136;28;88184;-66
2022/05/24 04:20:07;;;;;;;1.20;1.10;;;18.10;99.90;18.40;99268.00;;;;4954449;28;88162;-68
2022/05/24 04:22:34;;;;;;;1.15;0.70;;;18.20;99.90;18.50;99266.00;;;;4968697;28;88178;-66
2022/05/24 04:25:00;;;;;;;1.23;1.05;;;18.30;99.90;18.60;99265.00;;;;4954518;28;107138;-66
2022/05/24 04:27:25;;;;;;;1.02;0.90;;;18.40;99.90;18.80;99271.00;;;;4955522;28;95924;-68
2022/05/24 04:29:54;;;;;;;3.88;1.00;;;18.50;99.90;18.90;99273.00;;;;4953956;28;116253;-66
2022/05/24 04:32:21;;;;;;;1.08;0.85;;;18.60;99.90;19.00;99271.00;;;;4955096;28;88025;-66
2022/05/24 04:34:47;;;;;;;3.10;0.57;;;18.70;99.90;19.10;99286.00;;;;4952088;28;89058;-66
2022/05/24 04:37:13;;;;;;;1.60;1.10;;;18.80;99.90;19.20;99277.00;;;;4962102;28;117868;-65
2022/05/24 04:39:39;;;;;;;1.13;1.00;;;18.90;99.90;19.30;99280.00;;;;4967449;28;117243;-66
2022/05/24 04:42:24;;;;;;;1.48;0.93;;;19.10;99.90;19.40;99276.00;;;;4964359;28;87979;-67
2022/05/24 04:45:00;;;;;;;2.95;0.90;;;19.20;99.90;19.50;99280.00;;;;4946816;28;87743;-66
2022/05/24 04:47:30;;;;;;;1.70;1.00;;;19.30;99.90;19.60;99284.00;;;;4958149;28;88066;-66
2022/05/24 04:49:59;;;;;;;1.50;1.00;;;19.40;99.90;19.70;99288.00;;;;4968089;28;88167;-67
2022/05/24 04:52:29;;;;;;;3.53;0.85;;;19.50;99.90;19.80;99290.00;;;;4963695;28;87312;-66
2022/05/24 04:54:55;;;;;;;0.88;0.43;;;19.60;99.90;19.90;99288.00;;;;4965132;28;88098;-66
2022/05/24 04:57:21;;;;;;;0.77;0.60;;;19.60;99.90;20.00;99295.00;;;;4970588;28;89049;-68
2022/05/24 04:59:48;;;;;;;1.38;0.80;;;19.70;99.90;20.00;99299.00;;;;4967338;28;110886;-67
2022/05/24 05:02:14;;;;;;;2.17;1.25;;;19.80;99.90;20.10;99296.00;;;;4946872;28;88216;-67
2022/05/24 05:04:40;;;;;;;0.90;0.80;;;19.90;99.90;20.10;99290.00;;;;4969235;28;90755;-66
2022/05/24 05:07:07;;;;;;;1.30;1.20;;;19.90;99.90;20.10;99306.00;;;;4952191;28;109440;-66
2022/05/24 05:09:35;;;;;;;1.10;0.90;;;20.00;99.90;20.10;99304.00;;;;4954791;28;88492;-66
2022/05/24 05:12:09;;;;;;;0.55;0.40;;;19.90;99.90;20.10;99310.00;;;;4953819;28;89817;-66
2022/05/24 05:14:37;;;;;;;9.05;1.10;;;19.90;99.90;20.10;99309.00;;;;4955053;28;87846;-66
2022/05/24 05:17:03;;;;;;;1.30;0.88;;;19.90;99.90;20.20;99304.00;;;;4955114;28;87647;-66
2022/05/24 05:19:29;;;;;;;0.88;0.80;;;19.90;99.90;20.10;99298.00;;;;4954566;28;88012;-68
2022/05/24 05:21:55;;;;;;;0.45;0.45;;;19.90;99.90;20.10;99314.00;;;;4954044;28;100017;-66
2022/05/24 05:24:21;;;;;;;0.73;0.70;;;19.90;99.90;20.10;99312.00;;;;4954208;28;88869;-66
2022/05/24 05:26:47;;;;;;;3.70;0.95;;;19.90;99.90;20.00;99316.00;;;;4954501;28;92978;-68
2022/05/24 05:29:12;;;;;;;1.00;0.80;;;19.90;99.90;20.00;99316.00;;;;4953796;28;116603;-66
2022/05/24 05:31:38;;;;;;;1.10;0.70;;;19.80;99.90;20.00;99316.00;;;;4956075;28;111456;-67
2022/05/24 05:34:04;;;;;;;1.10;0.80;;;19.80;99.90;20.00;99321.00;;;;4971593;28;109563;-66
2022/05/24 05:36:33;;;;;;;1.23;0.65;;;19.80;99.90;20.10;99330.00;;;;4957961;28;94278;-67
2022/05/24 05:39:00;;;;;;;0.93;0.63;;;19.90;99.90;20.20;99331.00;;;;4939115;28;87823;-68
2022/05/24 05:41:29;;;;;;;1.35;0.88;;;20.00;99.90;20.30;99337.00;;;;4939362;28;86771;-65
2022/05/24 05:43:56;;;;;;;2.50;1.05;;;20.00;99.90;20.40;99346.00;;;;4956605;28;87994;-66
2022/05/24 05:46:22;;;;;;;1.67;0.85;;;20.10;99.90;20.40;99343.00;;;;4956398;28;109326;-66
2022/05/24 05:48:48;;;;;;;1.80;0.93;;;20.10;99.90;20.40;99345.00;;;;4955397;28;109237;-67
2022/05/24 05:51:16;;;;;;;1.65;0.95;;;20.20;99.90;20.50;99346.00;;;;4956487;28;109685;-66
2022/05/24 05:53:42;;;;;;;2.70;0.85;;;20.30;99.90;20.60;99352.00;;;;4956443;28;87813;-66
2022/05/24 05:56:15;;;;;;;0.90;0.75;;;20.30;99.90;20.60;99356.00;;;;4956533;28;117722;-66
2022/05/24 05:58:40;;;;;;;0.60;0.60;;;20.40;99.90;20.60;99362.00;;;;4957205;28;88124;-67
2022/05/24 06:01:06;;;;;;;1.85;0.90;;;20.40;99.90;20.70;99372.00;;;;4957640;28;87746;-66
2022/05/24 06:03:32;;;;;;;1.42;0.60;;;20.50;99.90;20.70;99369.00;;;;4955118;28;108604;-66
2022/05/24 06:06:00;;;;;;;0.70;0.60;;;20.50;99.90;20.80;99370.00;;;;4955880;28;117378;-67
2022/05/24 06:08:26;;;;;;;3.60;0.85;;;20.60;99.90;20.90;99369.00;;;;4957522;28;88042;-67
2022/05/24 06:10:53;;;;;;;0.68;0.68;;;20.60;99.90;21.00;99376.00;;;;4956602;28;89365;-67
2022/05/24 06:13:19;;;;;;;0.85;0.55;;;20.70;99.90;21.10;99375.00;;;;4956722;28;88879;-68
2022/05/24 06:15:49;;;;;;;0.93;0.80;;;20.90;99.90;21.30;99376.00;;;;4921809;28;89703;-68
2022/05/24 06:18:15;;;;;;;0.73;0.63;;;21.00;99.90;21.40;99370.00;;;;4937054;28;88066;-67
2022/05/24 06:20:41;;;;;;;1.80;0.70;;;21.10;99.90;21.60;99372.00;;;;4956389;28;110298;-67
2022/05/24 06:23:06;;;;;;;0.73;0.73;;;21.30;99.90;21.70;99373.00;;;;4956627;28;94016;-66
2022/05/24 06:25:32;;;;;;;1.35;0.90;;;21.40;99.90;21.80;99379.00;;;;4956532;28;104765;-68
2022/05/24 06:27:59;;;;;;;0.75;0.75;;;21.50;99.90;21.90;99381.00;;;;4956501;28;101381;-66
2022/05/24 06:30:26;;;;;;;1.20;0.93;;;21.60;99.90;22.00;99383.00;;;;4957012;28;86974;-67
2022/05/24 06:32:53;;;;;;;0.80;0.63;;;21.70;99.30;22.00;99380.00;;;;4957245;28;87896;-66
2022/05/24 06:35:31;;;;;;;3.50;0.90;;;21.70;98.80;21.90;99395.00;;;;4955480;28;117209;-67
2022/05/24 06:37:56;;;;;;;1.80;0.93;;;21.70;98.30;21.90;99408.00;;;;4970232;28;115323;-66
2022/05/24 06:40:22;;;;;;;2.30;0.95;;;21.70;98.00;21.90;99397.00;;;;4940150;28;109169;-66
2022/05/24 06:42:48;;;;;;;0.63;0.50;;;21.70;98.00;21.90;99403.00;;;;4956058;28;99519;-66
2022/05/24 06:45:14;;;;;;;1.30;0.95;;;21.60;98.10;21.90;99403.00;;;;4963755;28;116970;-66
2022/05/24 06:47:40;;;;;;;2.75;0.80;;;21.60;98.10;21.80;99410.00;;;;4974343;28;88653;-66
2022/05/24 06:50:07;;;;;;;0.30;0.30;;;21.60;97.50;21.80;99419.00;;;;4956605;28;88010;-66
2022/05/24 06:52:33;;;;;;;0.60;0.60;;;21.60;97.40;21.70;99411.00;;;;4956243;28;88589;-66
2022/05/24 06:54:59;;;;;;;0.68;0.68;;;21.50;96.70;21.60;99418.00;;;;4955811;28;114034;-67
2022/05/24 06:57:25;;;;;;;1.35;1.08;;;21.50;96.60;21.60;99423.00;;;;4955721;28;88331;-67
2022/05/24 07:02:35;;;;;;;1.27;1.02;;;21.40;96.80;21.50;99435.00;;;;4954374;28;88975;-66
2022/05/24 07:05:09;;;;;;;0.93;0.50;;;21.30;96.70;21.50;99436.00;;;;4955103;28;114275;-66
2022/05/24 07:07:37;;;;;;;0.57;0.55;;;21.30;96.80;21.50;99437.00;;;;4954965;28;97396;-66
2022/05/24 07:10:07;;;;;;;1.30;0.98;;;21.30;96.80;21.60;99442.00;;;;4956071;28;87769;-67
2022/05/24 07:12:33;;;;;;;0.70;0.70;;;21.40;96.70;21.70;99447.00;;;;4953957;28;88078;-68
2022/05/24 07:14:59;;;;;;;0.95;0.70;;;21.40;96.60;21.90;99444.00;;;;4954661;28;99307;-66
2022/05/24 07:17:26;;;;;;;0.50;0.50;;;21.60;96.50;22.00;99450.00;;;;4955532;28;104414;-68
2022/05/24 07:19:52;;;;;;;0.45;0.45;;;21.70;96.30;22.10;99448.00;;;;4956809;28;87053;-66
2022/05/24 07:22:17;;;;;;;0.93;0.93;;;21.80;96.20;22.20;99450.00;;;;4955021;28;100173;-67
2022/05/24 07:24:47;;;;;;;1.13;0.85;;;21.90;96.00;22.30;99456.00;;;;4955426;28;117898;-68
2022/05/24 07:27:14;;;;;;;1.80;0.70;;;22.00;95.80;22.30;99451.00;;;;4954603;28;89562;-66
2022/05/24 07:29:40;;;;;;;1.05;0.82;;;22.00;95.40;22.20;99460.00;;;;4955468;28;101116;-68
2022/05/24 07:32:07;;;;;;;2.70;0.98;;;22.00;95.10;22.20;99461.00;;;;4954948;28;108983;-67
2022/05/24 07:34:34;;;;;;;0.60;0.50;;;22.00;95.00;22.20;99458.00;;;;4955555;28;88576;-67
2022/05/24 07:37:01;;;;;;;1.13;1.02;;;22.00;95.00;22.30;99467.00;;;;4937452;28;88149;-66
2022/05/24 07:39:27;;;;;;;1.67;1.10;;;22.00;95.00;22.30;99459.00;;;;4937631;28;88003;-68
2022/05/24 07:47:27;;;;;;;2.28;0.85;;;22.00;94.10;22.20;99483.00;;;;4964702;28;87897;-66
2022/05/24 07:49:53;;;;;;;1.02;0.98;;;22.00;94.10;22.20;99488.00;;;;4955711;28;87871;-67
2022/05/24 07:52:18;;;;;;;1.35;1.00;;;22.00;92.80;22.10;99491.00;;;;4954552;28;108689;-66
2022/05/24 07:54:44;;;;;;;0.73;0.73;;;21.90;91.90;22.10;99499.00;;;;4952928;28;117305;-67
2022/05/24 07:57:10;;;;;;;1.08;0.52;;;21.90;91.80;22.10;99500.00;;;;4955327;28;117941;-67
2022/05/24 07:59:38;;;;;;;7.30;1.30;;;21.90;92.10;22.10;99495.00;;;;4955029;28;110844;-67
2022/05/24 08:02:27;;;;;;;0.60;0.60;;;21.90;92.00;22.10;99497.00;;;;4955387;28;87940;-67
2022/05/24 08:04:54;;;;;;;0.60;0.60;;;21.90;90.90;22.10;99504.00;;;;4954692;28;107793;-67
2022/05/24 08:07:19;;;;;;;0.47;0.40;;;21.90;90.80;22.20;99500.00;;;;4936654;28;87761;-66
2022/05/24 08:09:45;;;;;;;1.85;0.90;;;21.90;91.20;22.30;99500.00;;;;4956089;28;87096;-67
2022/05/24 08:12:11;;;;;;;1.40;0.63;;;22.00;91.40;22.50;99497.00;;;;4953759;28;88703;-66
2022/05/24 08:14:36;;;;;;;5.40;0.90;;;22.20;91.60;22.70;99493.00;;;;4955026;28;105756;-67
2022/05/24 08:17:02;;;;;;;0.70;0.70;;;22.40;91.70;23.00;99504.00;;;;4953786;28;117222;-66
2022/05/24 08:19:28;;;;;;;0.65;0.65;;;22.60;91.50;23.20;99508.00;;;;4955268;28;87465;-67
2022/05/24 08:21:55;;;;;;;3.63;0.88;;;22.80;91.20;23.30;99504.00;;;;4954436;28;107386;-66
2022/05/24 08:24:20;;;;;;;0.52;0.50;;;23.00;90.60;23.40;99511.00;;;;4954740;28;88387;-66
2022/05/24 08:26:46;;;;;;;0.65;0.63;;;23.10;90.20;23.40;99510.00;;;;4953514;28;117615;-66
2022/05/24 08:29:11;;;;;;;1.38;0.82;;;23.10;87.90;23.30;99522.00;;;;4954513;28;110790;-68
2022/05/24 08:31:37;;;;;;;0.88;0.85;;;23.10;87.50;23.30;99513.00;;;;4954402;28;107619;-68
2022/05/24 08:34:03;;;;;;;2.10;0.80;;;23.10;86.60;23.30;99514.00;;;;4953769;28;98443;-66
2022/05/24 08:36:29;;;;;;;0.60;0.50;;;23.10;85.70;23.30;99512.00;;;;4953216;28;116277;-67
2022/05/24 08:38:54;;;;;;;0.80;0.80;;;23.10;85.40;23.30;99509.00;;;;4954599;28;110228;-65
2022/05/24 08:41:50;;;;;;;0.98;0.88;;;23.10;84.80;23.50;99516.00;;;;4953115;28;109261;-65
2022/05/24 08:50:10;;;;;;;1.25;0.82;;;23.80;84.40;24.60;99521.00;;;;4964835;28;87868;-65
2022/05/24 08:52:57;;;;;;;1.65;0.93;;;24.10;82.20;24.80;99529.00;;;;4969444;28;87687;-66
2022/05/24 08:55:25;;;;;;;1.42;1.00;;;24.40;80.70;24.90;99530.00;;;;4935941;28;96264;-67
2022/05/24 08:57:54;;;;;;;0.73;0.73;;;24.50;77.30;24.80;99533.00;;;;4954364;28;108723;-66
2022/05/24 09:00:34;;;;;;;1.10;0.93;;;24.60;76.00;24.80;99531.00;;;;4969773;28;87011;-66
2022/05/24 09:03:12;;;;;;;0.68;0.68;;;24.50;75.20;24.80;99528.00;;;;4969273;28;87958;-66
2022/05/24 09:06:17;;;;;;;2.47;0.80;;;24.50;75.10;24.90;99527.00;;;;4954412;28;109148;-65
2022/05/24 09:09:08;;;;;;;0.75;0.75;;;24.60;75.40;25.10;99523.00;;;;4950768;28;88989;-66
2022/05/24 09:12:07;;;;;;;3.20;1.25;;;24.80;75.30;25.30;99525.00;;;;4951741;28;87725;-66
2022/05/24 09:15:03;;;;;;;1.65;0.95;;;24.90;73.70;25.40;99520.00;;;;4952516;28;87461;-67
2022/05/24 09:18:21;;;;;;;0.70;0.60;;;25.10;73.80;25.70;99525.00;;;;4925878;28;87811;-67
2022/05/24 09:20:47;;;;;;;1.02;0.55;;;25.30;72.50;25.80;99537.00;;;;4938108;28;88014;-65
2022/05/24 09:23:30;;;;;;;1.25;0.80;;;25.40;71.20;25.70;99531.00;;;;4937549;28;104016;-66
2022/05/24 09:26:05;;;;;;;2.60;1.20;;;25.50;70.20;25.60;99542.00;;;;4960331;28;88071;-66
2022/05/24 09:28:52;;;;;;;0.82;0.80;;;25.40;68.90;25.40;99550.00;;;;4958524;28;87503;-67
2022/05/24 09:31:39;;;;;;;6.82;1.50;;;25.20;69.20;25.20;99544.00;;;;4958194;28;87832;-65
2022/05/24 09:34:30;;;;;;;3.00;1.30;;;25.00;68.70;25.00;99554.00;;;;4957977;28;87753;-64
2022/05/24 09:37:05;;;;;;;1.13;0.82;;;24.80;69.20;24.90;99561.00;;;;4956407;28;99743;-66
2022/05/24 09:39:42;;;;;;;1.20;0.80;;;24.70;69.30;24.80;99570.00;;;;4939049;28;88202;-65
2022/05/24 09:42:23;;;;;;;1.67;1.08;;;24.60;69.80;24.70;99584.00;;;;4971560;28;87790;-65
2022/05/24 09:45:08;;;;;;;1.83;0.88;;;24.50;70.10;24.70;99584.00;;;;4962245;28;87990;-65
2022/05/24 09:47:51;;;;;;;1.58;0.85;;;24.50;70.00;24.70;99574.00;;;;4927816;28;87820;-66
2022/05/24 09:50:36;;;;;;;1.23;0.85;;;24.40;69.00;25.00;99567.00;;;;4938380;28;99966;-65
2022/05/24 09:53:26;;;;;;;0.80;0.70;;;24.60;68.50;25.40;99554.00;;;;4938421;28;99744;-67
2022/05/24 09:56:18;;;;;;;0.80;0.77;;;24.90;67.60;25.70;99556.00;;;;4957709;28;87049;-66
2022/05/24 09:59:04;;;;;;;1.30;1.02;;;25.20;66.40;25.70;99555.00;;;;4972246;28;87799;-65
2022/05/24 10:01:40;;;;;;;1.00;0.90;;;25.40;63.00;25.60;99562.00;;;;4971597;28;88194;-65
2022/05/24 10:04:34;;;;;;;0.95;0.90;;;25.30;62.80;25.40;99549.00;;;;4956083;28;88912;-65
2022/05/24 10:07:22;;;;;;;2.00;1.13;;;25.20;63.30;25.40;99552.00;;;;4956010;28;99206;-64
2022/05/24 10:10:00;;;;;;;1.17;0.75;;;25.10;64.00;25.50;99556.00;;;;4957164;28;87775;-65
2022/05/24 10:13:09;;;;;;;1.75;1.10;;;25.20;63.00;25.60;99554.00;;;;4969994;28;101396;-65
2022/05/24 10:15:54;;;;;;;0.93;0.75;;;25.20;62.20;25.70;99552.00;;;;4957465;28;87978;-66
2022/05/24 10:18:38;;;;;;;0.90;0.90;;;25.40;62.10;26.00;99549.00;;;;4970297;28;87843;-65
2022/05/24 10:21:35;;;;;;;1.98;1.17;;;25.60;60.60;26.10;99550.00;;;;4935384;28;87946;-65
2022/05/24 10:24:06;;;;;;;0.68;0.60;;;25.60;59.80;26.30;99555.00;;;;4918500;28;108207;-67
2022/05/24 10:26:56;;;;;;;0.88;0.80;;;25.70;59.90;26.50;99552.00;;;;4947347;28;87515;-68
2022/05/24 10:29:52;;;;;;;1.30;0.60;;;26.00;60.00;26.80;99555.00;;;;4935885;28;87994;-68
2022/05/24 10:39:11;;;;;;;0.85;0.60;;;26.40;57.80;26.90;99557.00;;;;4968275;28;87735;-70
2022/05/24 10:42:09;;;;;;;1.65;0.90;;;26.40;58.10;27.10;99557.00;;;;4971478;28;87811;-71
2022/05/24 10:44:49;;;;;;;1.20;0.73;;;26.70;58.20;27.50;99560.00;;;;4958396;28;87742;-68
2022/05/24 10:47:57;;;;;;;1.80;1.00;;;26.90;57.50;27.60;99562.00;;;;4941097;28;110319;-68
2022/05/24 10:50:43;;;;;;;3.28;1.20;;;27.20;56.80;27.60;99568.00;;;;4937964;28;87790;-68
2022/05/24 10:53:28;;;;;;;1.38;0.85;;;27.20;55.30;27.50;99572.00;;;;4938842;28;86928;-68
2022/05/24 10:56:19;;;;;;;1.67;0.82;;;27.10;54.60;27.70;99576.00;;;;4970111;28;102470;-68
2022/05/24 10:58:47;;;;;;;0.93;0.80;;;27.20;55.00;27.70;99572.00;;;;4970515;28;95200;-71
2022/05/24 11:01:34;;;;;;;0.88;0.63;;;27.30;53.60;27.70;99570.00;;;;4954300;28;101231;-70
2022/05/24 11:04:10;;;;;;;0.52;0.50;;;27.30;53.10;27.30;99564.00;;;;4938748;28;87777;-68
2022/05/24 11:06:40;;;;;;;0.90;0.77;;;27.10;52.20;27.00;99570.00;;;;4936746;28;87925;-70
2022/05/24 11:09:13;;;;;;;0.68;0.68;;;26.80;52.90;26.80;99576.00;;;;4937144;28;104068;-68
2022/05/24 11:12:06;;;;;;;0.57;0.57;;;26.60;54.00;26.70;99561.00;;;;4969716;28;109862;-70
2022/05/24 11:15:24;;;;;;;0.77;0.65;;;26.40;54.40;26.70;99551.00;;;;4969967;28;87890;-69
2022/05/24 11:17:50;;;;;;;3.33;0.60;;;26.40;53.90;26.60;99565.00;;;;4970701;28;87726;-69
2022/05/24 11:20:24;;;;;;;0.88;0.77;;;26.30;54.10;26.50;99570.00;;;;4970334;28;87097;-70
2022/05/24 11:23:03;;;;;;;0.50;0.50;;;26.20;54.50;26.20;99571.00;;;;4920724;28;87934;-70
2022/05/24 11:25:49;;;;;;;0.70;0.60;;;26.10;53.50;25.80;99585.00;;;;4970490;28;87905;-71
2022/05/24 11:28:25;;;;;;;2.30;1.23;;;25.80;53.10;25.50;99574.00;;;;4966325;28;88758;-70
2022/05/24 11:30:53;;;;;;;0.80;0.77;;;25.40;53.70;25.50;99583.00;;;;4970670;28;87944;-69
2022/05/24 11:33:39;;;;;;;0.35;0.35;;;25.20;53.90;25.50;99592.00;;;;4969964;28;88644;-71
2022/05/24 11:36:34;;;;;;;0.68;0.68;;;25.20;54.40;25.60;99594.00;;;;4970316;28;88234;-69
2022/05/24 11:39:27;;;;;;;1.15;0.70;;;25.30;53.70;25.90;99600.00;;;;4951825;28;89445;-70
2022/05/24 11:42:25;;;;;;;1.08;0.70;;;25.40;54.20;26.40;99594.00;;;;4946104;28;88513;-71
2022/05/24 11:44:53;;;;;;;0.30;0.30;;;25.80;53.90;27.00;99592.00;;;;4960130;28;87850;-71
2022/05/24 11:47:48;;;;;;;0.85;0.38;;;26.40;53.70;27.40;99593.00;;;;4961005;28;87445;-69
2022/05/24 11:50:43;;;;;;;0.65;0.50;;;26.80;51.30;27.70;99600.00;;;;4970298;28;87699;-69
2022/05/24 11:54:10;;;;;;;0.50;0.50;;;27.20;49.60;27.70;99596.00;;;;4969174;28;88073;-72